Palmer, Arkansas
Current Conditions -  °F | °C
As of 4:55 PM on Saturday 20 Dec 2014 (Local Time) from KSGT Reporting Station
Overcast Overcast  
Wind Chill: 44°   Ceiling: 6000
Heat Index: 46°   Visibility: NA
Dew Point: 36°   Wind: 6mph
Humidity: 66%   Direction: 20°NNE
Pressure: 30.24"   Gusts: NA
Location:  34.5919°N, 91.1409°W
Report Text: KSGT 202255Z 02005KT OVC060 08/02 A3024 RMK AO1
Loading
Personal Weather Stations






























Interactive Weather Map New forecast layout! Learn more

10-Day Weather Forecast

Advertisements
Track Severe Weather on mobile